Skip Navigation Links Skip Navigation Links

Current Weather

Westchester County, White Plains, N.Y.

For information only: do not use for flight planning or navigation.
Latest weather
Observation time Saturday, June 6, 2020 6:56 PM EDT
Local time Saturday, June 6, 2020 7:27 PM EDT
Flight conditions Visual Meteorological Conditions
Winds
Wind direction Northwest (310°)
Wind speed 17 mph
Wind gusting to 28 mph
Peak wind speed 30 mph, 6:12 PM
Peak wind direction Northwest (310°)
Visibility 10 mi.
Sky condition
Ceiling unlimited
Sky clear
Temperature 80°F
Dewpoint 47°F
Altimeter 29.72 in.Hg
Derived measurements
Relative humidity 31%
Heat index 80°F
Density altitude 2177 ft.
Sea-level pressure 29.70 in.Hg
Remarks
Automated weather observing station with precipitation discriminator.
METAR KHPN 062256Z 31015G24KT 10SM CLR 27/08 A2972 RMK AO2 PK WND 31026/2212 SLP059 T02670083

Settings

Location code

InnerDrive.Weather 4.0.6770.0 Release CLR 4.0.30319.42000
Copyright ©2018 Inner Drive Technology. All rights reserved. Portions Copyright ©1986-2018 David Braverman.

Find weather

Site navigation


Skip Navigation Links

Place info

Page info

PayPal - The safer, easier way to pay online!

Return home.

Copyright ©2020 Inner Drive Technology. Purveyors of fine, hand-crafted computer software. Page printed 2020-06-06T23:27:56 UTC.